VKO weather

Vnukovo International Airport
Moscow, Moscow Oblast, Russia

Public forecast

Using degrees Celsius for public forecast. Weather courtesy of forecast.io.

Current aviation weather report (METAR) for Vnukovo International Airport

Retrieved 2020/02/27 19:30 UTC (17 minutes ago):

UUWW 271930Z 23002MPS 4500 -RA BR SCT008 OVC033 02/02 Q0992 R19/290050 NOSIG

Aviation forecast (TAF) for Vnukovo International Airport

Retrieved 2020/02/27 18:22 UTC (1 hour ago):

TAF UUWW 271656Z 2718/2818 19003MPS 1000 BR OVC001 TX02/2812Z TNM01/2818Z TEMPO 2718/2801 0300 -SNRA FG OVC003 FM280100 31003MPS 2000 BR BKN004 TEMPO 2801/2806 0500 FZFG BKN002 FM280600 27005G12MPS 6000 FEW005 BKN011